createdAt,value
2019-01-10T00:02:28.782Z,1.30
2019-01-10T00:04:58.967Z,1.20
2019-01-10T00:07:29.192Z,1.20
2019-01-10T00:09:59.454Z,1.20
2019-01-10T00:12:29.681Z,1.20
2019-01-10T00:14:59.859Z,1.20
2019-01-10T00:17:30.040Z,1.10
2019-01-10T00:20:00.298Z,1.10
2019-01-10T00:22:30.859Z,1.10
2019-01-10T00:25:01.341Z,1.10
2019-01-10T00:27:31.601Z,1.10
2019-01-10T00:30:01.758Z,1.10
2019-01-10T00:32:32.210Z,1.00
2019-01-10T00:35:02.439Z,1.00
2019-01-10T00:37:32.615Z,1.00
2019-01-10T00:40:02.738Z,1.00
2019-01-10T00:42:33.085Z,1.00
2019-01-10T00:45:03.525Z,1.00
2019-01-10T00:47:33.765Z,0.90
2019-01-10T00:50:04.598Z,0.90
2019-01-10T00:52:34.809Z,0.90
2019-01-10T00:55:05.415Z,0.90
2019-01-10T00:57:35.611Z,0.90
2019-01-10T01:00:07.946Z,0.90
2019-01-10T01:02:38.192Z,0.90
2019-01-10T01:05:10.201Z,0.80
2019-01-10T01:07:40.508Z,0.80
2019-01-10T01:10:13.573Z,0.80
2019-01-10T01:12:43.839Z,0.90
2019-01-10T01:15:15.323Z,0.90
2019-01-10T01:17:45.547Z,0.90
2019-01-10T01:20:18.205Z,0.80
2019-01-10T01:22:48.440Z,0.90
2019-01-10T01:25:18.754Z,0.90
2019-01-10T01:27:48.898Z,0.90
2019-01-10T01:30:23.710Z,0.90
2019-01-10T01:32:53.826Z,0.90
2019-01-10T01:35:23.973Z,0.90
2019-01-10T01:37:54.199Z,0.80
2019-01-10T01:40:24.446Z,0.80
2019-01-10T01:42:54.634Z,0.80
2019-01-10T01:45:24.820Z,0.80
2019-01-10T01:47:55.331Z,0.80
2019-01-10T01:50:25.637Z,0.90
2019-01-10T01:52:55.848Z,0.90
2019-01-10T01:55:26.003Z,0.80
2019-01-10T01:57:56.123Z,0.90
2019-01-10T02:00:26.439Z,0.90
2019-01-10T02:02:56.652Z,0.90
2019-01-10T02:05:26.897Z,0.90
2019-01-10T02:07:57.103Z,0.90
2019-01-10T02:10:28.675Z,0.90
2019-01-10T02:12:58.884Z,0.90
2019-01-10T02:15:29.192Z,0.90
2019-01-10T02:17:59.383Z,0.90
2019-01-10T02:20:29.645Z,0.90
2019-01-10T02:22:59.794Z,0.90
2019-01-10T02:25:30.026Z,0.90
2019-01-10T02:28:00.293Z,0.80
2019-01-10T02:30:30.567Z,0.80
2019-01-10T02:33:00.814Z,0.90
2019-01-10T02:35:30.964Z,0.80
2019-01-10T02:38:01.181Z,0.80
2019-01-10T02:40:31.320Z,0.70
2019-01-10T02:43:01.504Z,0.80
2019-01-10T02:45:31.627Z,0.80
2019-01-10T02:48:01.808Z,0.80
2019-01-10T02:50:31.924Z,0.80
2019-01-10T02:53:02.121Z,0.80
2019-01-10T02:55:32.434Z,0.80
2019-01-10T02:58:02.637Z,0.80
2019-01-10T03:00:32.814Z,0.80
2019-01-10T03:03:03.126Z,0.80
2019-01-10T03:05:34.398Z,0.80
2019-01-10T03:08:04.591Z,0.80
2019-01-10T03:10:34.783Z,0.80
2019-01-10T03:13:05.892Z,0.70
2019-01-10T03:15:36.088Z,0.70
2019-01-10T03:18:06.252Z,0.70
2019-01-10T03:20:36.423Z,0.80
2019-01-10T03:23:06.594Z,0.80
2019-01-10T03:25:36.726Z,0.80
2019-01-10T03:28:06.874Z,0.80
2019-01-10T03:30:37.110Z,0.80
2019-01-10T03:33:07.280Z,0.80
2019-01-10T03:35:37.479Z,0.80
2019-01-10T03:38:07.692Z,0.90
2019-01-10T03:40:37.863Z,0.80
2019-01-10T03:43:08.205Z,0.80
2019-01-10T03:45:38.488Z,0.80
2019-01-10T03:48:08.647Z,0.80
2019-01-10T03:50:38.807Z,0.70
2019-01-10T03:53:08.979Z,0.70
2019-01-10T03:55:39.099Z,0.80
2019-01-10T03:58:09.399Z,0.80
2019-01-10T04:00:40.500Z,0.80
2019-01-10T04:03:10.966Z,0.80
2019-01-10T04:05:41.287Z,0.80
2019-01-10T04:08:11.538Z,0.70
2019-01-10T04:10:41.666Z,0.80
2019-01-10T04:13:11.801Z,0.70
2019-01-10T04:15:41.926Z,0.70
2019-01-10T04:18:12.243Z,0.80
2019-01-10T04:20:42.488Z,0.80
2019-01-10T04:23:12.727Z,0.80
2019-01-10T04:25:43.097Z,0.80
2019-01-10T04:28:13.392Z,0.80
2019-01-10T04:30:46.176Z,0.80
2019-01-10T04:33:15.564Z,0.70
2019-01-10T04:35:45.740Z,0.80
2019-01-10T04:38:16.055Z,0.80
2019-01-10T04:40:46.253Z,0.80
2019-01-10T04:43:16.451Z,0.70
2019-01-10T04:45:46.683Z,0.80
2019-01-10T04:48:16.879Z,0.80
2019-01-10T04:50:47.128Z,0.80
2019-01-10T04:53:17.215Z,0.90
2019-01-10T04:55:47.508Z,0.90
2019-01-10T04:58:17.713Z,1.00
2019-01-10T05:00:47.908Z,1.00
2019-01-10T05:03:18.102Z,0.90
2019-01-10T05:05:48.242Z,1.00
2019-01-10T05:08:18.420Z,1.00
2019-01-10T05:10:48.627Z,0.90
2019-01-10T05:13:18.822Z,0.90
2019-01-10T05:15:48.988Z,0.90
2019-01-10T05:18:19.100Z,0.90
2019-01-10T05:20:49.402Z,0.90
2019-01-10T05:23:19.659Z,0.80
2019-01-10T05:25:49.818Z,0.80
2019-01-10T05:28:20.057Z,0.80
2019-01-10T05:30:50.193Z,0.80
2019-01-10T05:33:20.434Z,0.80
2019-01-10T05:35:50.683Z,0.80
2019-01-10T05:38:21.051Z,0.80
2019-01-10T05:40:51.279Z,1.00
2019-01-10T05:43:21.488Z,1.00
2019-01-10T05:45:51.721Z,1.10
2019-01-10T05:48:21.935Z,1.10
2019-01-10T05:50:52.211Z,1.10
2019-01-10T05:53:22.406Z,1.10
2019-01-10T05:55:52.617Z,1.00
2019-01-10T05:58:22.940Z,1.10
2019-01-10T06:00:53.167Z,1.00
2019-01-10T06:03:23.408Z,1.00
2019-01-10T06:05:53.590Z,1.10
2019-01-10T06:08:23.850Z,1.20
2019-01-10T06:10:54.041Z,1.20
2019-01-10T06:13:24.318Z,1.20
2019-01-10T06:15:54.585Z,1.10
2019-01-10T06:18:24.841Z,1.20
2019-01-10T06:20:55.010Z,1.10
2019-01-10T06:23:25.259Z,1.10
2019-01-10T06:25:55.562Z,1.10
2019-01-10T06:28:25.758Z,1.10
2019-01-10T06:30:56.047Z,1.20
2019-01-10T06:33:26.250Z,1.10
2019-01-10T06:35:56.439Z,1.20
2019-01-10T06:38:26.652Z,1.20
2019-01-10T06:40:56.862Z,1.20
2019-01-10T06:43:27.082Z,1.10
2019-01-10T06:45:57.263Z,1.10
2019-01-10T06:48:27.506Z,1.10
2019-01-10T06:50:58.116Z,1.10
2019-01-10T06:53:28.335Z,1.00
2019-01-10T06:55:58.510Z,1.10
2019-01-10T06:58:28.698Z,1.20
2019-01-10T07:00:58.957Z,1.20
2019-01-10T07:03:29.102Z,1.20
2019-01-10T07:05:59.256Z,1.20
2019-01-10T07:08:29.495Z,1.20
2019-01-10T07:10:59.633Z,1.10
2019-01-10T07:13:29.884Z,1.20
2019-01-10T07:16:00.017Z,1.20
2019-01-10T07:18:30.223Z,1.30
2019-01-10T07:21:00.361Z,1.30
2019-01-10T07:23:30.556Z,1.30
2019-01-10T07:26:00.811Z,1.20
2019-01-10T07:28:30.899Z,1.30
2019-01-10T07:31:02.736Z,1.30
2019-01-10T07:33:32.936Z,1.30
2019-01-10T07:36:03.131Z,1.30
2019-01-10T07:38:33.303Z,1.30
2019-01-10T07:41:03.433Z,1.40
2019-01-10T07:43:34.571Z,1.50
2019-01-10T07:46:07.516Z,1.50
2019-01-10T07:48:38.034Z,1.50
2019-01-10T07:51:08.175Z,1.50
2019-01-10T07:53:38.360Z,1.50
2019-01-10T07:56:08.524Z,1.50
2019-01-10T07:58:38.655Z,1.60
2019-01-10T08:01:08.801Z,1.50
2019-01-10T08:03:39.001Z,1.50
2019-01-10T08:06:09.420Z,1.50
2019-01-10T08:08:40.541Z,1.50
2019-01-10T08:11:11.114Z,1.60
2019-01-10T08:13:41.354Z,1.60
2019-01-10T08:16:11.566Z,1.60
2019-01-10T08:18:41.743Z,1.60
2019-01-10T08:21:12.004Z,1.60
2019-01-10T08:23:42.120Z,1.60
2019-01-10T08:26:12.393Z,1.60
2019-01-10T08:28:42.548Z,1.50
2019-01-10T08:31:13.880Z,1.60
2019-01-10T08:33:43.986Z,1.60
2019-01-10T08:36:14.183Z,1.60
2019-01-10T08:38:44.365Z,1.60
2019-01-10T08:41:14.504Z,1.60
2019-01-10T08:43:44.650Z,1.70
2019-01-10T08:46:14.778Z,1.70
2019-01-10T08:48:44.935Z,1.70
2019-01-10T08:51:15.247Z,1.70
2019-01-10T08:53:53.747Z,1.70
2019-01-10T08:56:17.575Z,1.80
2019-01-10T08:58:47.680Z,1.80
2019-01-10T09:01:17.900Z,1.90
2019-01-10T09:03:49.342Z,1.80
2019-01-10T09:06:20.586Z,1.90
2019-01-10T09:08:50.768Z,1.90
2019-01-10T09:11:20.993Z,1.90
2019-01-10T09:13:52.225Z,1.90
2019-01-10T09:16:22.439Z,1.90
2019-01-10T09:18:52.635Z,1.90
2019-01-10T09:21:23.528Z,2.00
2019-01-10T09:23:53.818Z,2.00
2019-01-10T09:26:23.927Z,2.00
2019-01-10T09:28:54.072Z,2.00
2019-01-10T09:31:24.358Z,2.10
2019-01-10T09:33:54.615Z,2.10
2019-01-10T09:36:24.831Z,2.20
2019-01-10T09:38:55.049Z,2.20
2019-01-10T09:41:25.253Z,2.20
2019-01-10T09:43:55.550Z,2.20
2019-01-10T09:46:25.830Z,2.20
2019-01-10T09:48:55.986Z,2.20
2019-01-10T09:51:26.199Z,2.30
2019-01-10T09:53:56.478Z,2.30
2019-01-10T09:56:26.616Z,2.40
2019-01-10T09:58:56.819Z,2.50
2019-01-10T10:01:26.972Z,2.40
2019-01-10T10:03:57.222Z,2.40
2019-01-10T10:06:27.418Z,2.50
2019-01-10T10:08:57.699Z,2.50
2019-01-10T10:11:34.000Z,2.60
2019-01-10T10:14:00.030Z,2.70
2019-01-10T10:16:30.705Z,2.70
2019-01-10T10:19:00.926Z,2.80
2019-01-10T10:21:31.163Z,2.90
2019-01-10T10:24:01.342Z,2.90
2019-01-10T10:26:32.547Z,3.10
2019-01-10T10:29:02.751Z,3.20
2019-01-10T10:31:32.924Z,3.10
2019-01-10T10:34:03.154Z,3.20
2019-01-10T10:36:33.420Z,3.30
2019-01-10T10:39:05.075Z,3.20
2019-01-10T10:41:35.210Z,3.30
2019-01-10T10:44:05.514Z,3.30
2019-01-10T10:46:35.959Z,3.30
2019-01-10T10:49:06.088Z,3.20
2019-01-10T10:51:36.248Z,3.30
2019-01-10T10:54:06.562Z,3.20
2019-01-10T10:56:36.759Z,3.20
2019-01-10T10:59:06.937Z,3.20
2019-01-10T11:01:37.133Z,3.20
2019-01-10T11:04:07.330Z,3.20
2019-01-10T11:06:37.555Z,3.30
2019-01-10T11:09:09.684Z,3.30
2019-01-10T11:11:41.044Z,3.30
2019-01-10T11:14:11.231Z,3.30
2019-01-10T11:16:41.468Z,3.30
2019-01-10T11:19:11.575Z,3.40
2019-01-10T11:21:41.810Z,3.50
2019-01-10T11:24:11.895Z,3.60
2019-01-10T11:26:42.103Z,3.70
2019-01-10T11:29:12.303Z,3.80
2019-01-10T11:31:42.803Z,3.80
2019-01-10T11:34:12.897Z,3.90
2019-01-10T11:36:42.990Z,3.90
2019-01-10T11:39:13.239Z,4.00
2019-01-10T11:41:43.370Z,4.10
2019-01-10T11:44:14.487Z,4.30
2019-01-10T11:46:44.688Z,4.40
2019-01-10T11:49:15.735Z,4.50
2019-01-10T11:51:45.896Z,4.70
2019-01-10T11:54:16.430Z,4.90
2019-01-10T11:56:46.909Z,4.80
2019-01-10T11:59:17.060Z,4.80
2019-01-10T12:01:47.353Z,4.80
2019-01-10T12:04:17.563Z,4.60
2019-01-10T12:06:47.838Z,4.50
2019-01-10T12:09:18.071Z,4.60
2019-01-10T12:11:48.202Z,4.60
2019-01-10T12:14:18.418Z,4.50
2019-01-10T12:16:48.650Z,4.60
2019-01-10T12:19:18.858Z,4.60
2019-01-10T12:21:49.019Z,4.60
2019-01-10T12:24:19.229Z,4.60
2019-01-10T12:26:49.475Z,4.50
2019-01-10T12:29:19.913Z,4.50
2019-01-10T12:31:50.131Z,4.50
2019-01-10T12:34:20.219Z,4.50
2019-01-10T12:36:50.442Z,4.50
2019-01-10T12:39:20.557Z,4.60
2019-01-10T12:41:50.858Z,4.70
2019-01-10T12:44:20.948Z,4.80
2019-01-10T12:46:51.096Z,4.80
2019-01-10T12:49:21.211Z,4.70
2019-01-10T12:51:51.327Z,4.60
2019-01-10T12:54:22.007Z,4.50
2019-01-10T12:56:52.376Z,4.40
2019-01-10T12:59:22.538Z,4.40
2019-01-10T13:01:53.781Z,4.50
2019-01-10T13:04:23.963Z,4.50
2019-01-10T13:06:54.162Z,4.50
2019-01-10T13:09:24.326Z,4.40
2019-01-10T13:11:54.521Z,4.40
2019-01-10T13:14:24.653Z,4.50
2019-01-10T13:16:54.822Z,4.50
2019-01-10T13:19:24.958Z,4.50
2019-01-10T13:21:55.059Z,4.50
2019-01-10T13:24:25.349Z,4.60
2019-01-10T13:26:55.642Z,4.70
2019-01-10T13:29:25.795Z,4.80
2019-01-10T13:31:56.030Z,4.80
2019-01-10T13:34:26.225Z,4.80
2019-01-10T13:36:56.780Z,4.80
2019-01-10T13:39:27.343Z,4.80
2019-01-10T13:41:57.500Z,4.90
2019-01-10T13:44:27.676Z,5.00
2019-01-10T13:46:57.857Z,5.10
2019-01-10T13:49:28.003Z,5.10
2019-01-10T13:51:58.219Z,5.10
2019-01-10T13:54:28.443Z,5.10
2019-01-10T13:56:58.679Z,5.20
2019-01-10T13:59:28.794Z,5.10
2019-01-10T14:01:59.167Z,5.10
2019-01-10T14:04:29.433Z,5.10
2019-01-10T14:06:59.713Z,5.10
2019-01-10T14:09:29.895Z,5.00
2019-01-10T14:12:00.173Z,4.90
2019-01-10T14:14:30.394Z,4.90
2019-01-10T14:17:01.812Z,4.70
2019-01-10T14:19:32.254Z,4.60
2019-01-10T14:22:02.304Z,4.60
2019-01-10T14:24:32.427Z,4.60
2019-01-10T14:27:02.515Z,4.50
2019-01-10T14:29:32.816Z,4.50
2019-01-10T14:32:02.947Z,4.40
2019-01-10T14:34:33.085Z,4.40
2019-01-10T14:37:03.181Z,4.40
2019-01-10T14:39:33.453Z,4.40
2019-01-10T14:42:03.657Z,4.30
2019-01-10T14:44:33.890Z,4.30
2019-01-10T14:47:07.628Z,4.20
2019-01-10T14:49:36.004Z,4.20
2019-01-10T14:52:06.246Z,4.20
2019-01-10T14:54:37.391Z,4.20
2019-01-10T14:57:07.631Z,4.10
2019-01-10T14:59:37.794Z,4.10
2019-01-10T15:02:09.488Z,4.10
2019-01-10T15:04:39.775Z,4.10
2019-01-10T15:07:09.909Z,4.10
2019-01-10T15:09:40.007Z,4.10
2019-01-10T15:12:10.543Z,4.00
2019-01-10T15:14:40.740Z,4.00
2019-01-10T15:17:13.939Z,3.90
2019-01-10T15:19:44.366Z,3.80
2019-01-10T15:22:14.642Z,3.70
2019-01-10T15:24:44.863Z,3.80
2019-01-10T15:27:15.191Z,3.70
2019-01-10T15:29:48.160Z,3.70
2019-01-10T15:32:18.415Z,3.70
2019-01-10T15:34:48.503Z,3.60
2019-01-10T15:37:19.848Z,3.60
2019-01-10T15:39:50.049Z,3.50
2019-01-10T15:42:20.235Z,3.40
2019-01-10T15:44:50.299Z,3.40
2019-01-10T15:47:20.546Z,3.40
2019-01-10T15:49:50.810Z,3.30
2019-01-10T15:52:21.054Z,3.30
2019-01-10T15:54:51.609Z,3.30
2019-01-10T15:57:21.862Z,3.30
2019-01-10T15:59:51.945Z,3.20
2019-01-10T16:02:22.276Z,3.20
2019-01-10T16:04:52.688Z,3.30
2019-01-10T16:07:22.910Z,3.20
2019-01-10T16:09:53.210Z,3.20
2019-01-10T16:12:23.431Z,3.20
2019-01-10T16:14:53.722Z,3.20
2019-01-10T16:17:25.602Z,3.10
2019-01-10T16:19:55.940Z,3.20
2019-01-10T16:22:26.121Z,3.20
2019-01-10T16:24:56.389Z,3.20
2019-01-10T16:27:26.665Z,3.20
2019-01-10T16:29:56.894Z,3.20
2019-01-10T16:32:27.062Z,3.20
2019-01-10T16:34:58.506Z,3.10
2019-01-10T16:37:28.767Z,3.10
2019-01-10T16:39:58.853Z,3.10
2019-01-10T16:42:29.390Z,3.10
2019-01-10T16:44:59.609Z,3.10
2019-01-10T16:47:31.759Z,3.10
2019-01-10T16:50:01.715Z,3.10
2019-01-10T16:52:31.862Z,3.10
2019-01-10T16:55:02.128Z,3.10
2019-01-10T16:57:32.307Z,3.10
2019-01-10T17:00:02.597Z,3.20
2019-01-10T17:02:36.229Z,3.20
2019-01-10T17:05:06.651Z,3.20
2019-01-10T17:07:38.604Z,3.10
2019-01-10T17:10:09.412Z,3.20
2019-01-10T17:12:39.559Z,3.20
2019-01-10T17:15:09.999Z,3.20
2019-01-10T17:17:40.311Z,3.10
2019-01-10T17:20:12.534Z,3.10
2019-01-10T17:22:43.104Z,3.20
2019-01-10T17:25:13.490Z,3.20
2019-01-10T17:27:43.819Z,3.20
2019-01-10T17:30:17.939Z,3.20
2019-01-10T17:32:48.234Z,3.20
2019-01-10T17:35:20.121Z,3.20
2019-01-10T17:37:50.555Z,3.20
2019-01-10T17:40:21.535Z,3.20
2019-01-10T17:42:53.066Z,3.30
2019-01-10T17:45:25.247Z,3.40
2019-01-10T17:47:55.718Z,3.30
2019-01-10T17:50:26.920Z,3.20
2019-01-10T17:52:57.529Z,3.20
2019-01-10T17:55:27.892Z,3.20
2019-01-10T17:57:58.138Z,3.20
2019-01-10T18:00:29.822Z,3.20
2019-01-10T18:03:00.590Z,3.20
2019-01-10T18:05:32.181Z,3.20
2019-01-10T18:08:02.556Z,3.20
2019-01-10T18:10:32.859Z,3.20
2019-01-10T18:13:03.071Z,3.20
2019-01-10T18:15:33.332Z,3.20
2019-01-10T18:18:03.618Z,3.20
2019-01-10T18:20:38.856Z,3.10
2019-01-10T18:23:09.239Z,3.20
2019-01-10T18:25:39.528Z,3.20
2019-01-10T18:28:09.931Z,3.30
2019-01-10T18:30:43.399Z,3.20
2019-01-10T18:33:12.268Z,3.20
2019-01-10T18:35:42.463Z,3.20
2019-01-10T18:38:13.380Z,3.20
2019-01-10T18:40:43.692Z,3.20
2019-01-10T18:43:14.040Z,3.20
2019-01-10T18:45:44.265Z,3.20
2019-01-10T18:48:14.585Z,3.20
2019-01-10T18:50:45.380Z,3.30
2019-01-10T18:53:15.816Z,3.20
2019-01-10T18:55:45.953Z,3.20
2019-01-10T18:58:16.510Z,3.20
2019-01-10T19:00:47.249Z,3.20
2019-01-10T19:03:17.686Z,3.20
2019-01-10T19:05:48.054Z,3.20
2019-01-10T19:08:18.530Z,3.20
2019-01-10T19:10:48.847Z,3.20
2019-01-10T19:13:19.272Z,3.20
2019-01-10T19:15:49.607Z,3.20
2019-01-10T19:18:20.074Z,3.20
2019-01-10T19:20:50.378Z,3.20
2019-01-10T19:23:20.690Z,3.10
2019-01-10T19:25:50.923Z,3.10
2019-01-10T19:28:22.437Z,3.00
2019-01-10T19:30:52.599Z,3.00
2019-01-10T19:33:22.784Z,3.00
2019-01-10T19:35:52.990Z,3.00
2019-01-10T19:38:23.419Z,3.00
2019-01-10T19:40:53.722Z,2.90
2019-01-10T19:43:24.358Z,3.00
2019-01-10T19:45:55.597Z,2.90
2019-01-10T19:48:25.827Z,2.80
2019-01-10T19:50:56.054Z,2.80
2019-01-10T19:53:26.578Z,2.80
2019-01-10T19:55:56.807Z,2.80
2019-01-10T19:58:27.219Z,2.80
2019-01-10T20:00:57.725Z,2.90
2019-01-10T20:03:28.222Z,2.80
2019-01-10T20:05:58.855Z,2.70
2019-01-10T20:08:29.208Z,2.60
2019-01-10T20:10:59.450Z,2.50
2019-01-10T20:13:30.102Z,2.50
2019-01-10T20:16:00.283Z,2.50
2019-01-10T20:18:30.595Z,2.50
2019-01-10T20:21:00.850Z,2.50
2019-01-10T20:23:33.963Z,2.50
2019-01-10T20:26:04.605Z,2.50
2019-01-10T20:28:35.156Z,2.50
2019-01-10T20:31:05.515Z,2.40
2019-01-10T20:33:35.941Z,2.40
2019-01-10T20:36:06.303Z,2.50
2019-01-10T20:38:36.623Z,2.50
2019-01-10T20:41:06.888Z,2.50
2019-01-10T20:43:37.184Z,2.50
2019-01-10T20:46:07.749Z,2.60
2019-01-10T20:48:38.150Z,2.60
2019-01-10T20:51:08.504Z,2.60
2019-01-10T20:53:38.861Z,2.70
2019-01-10T20:56:09.231Z,2.60
2019-01-10T20:58:39.896Z,2.70
2019-01-10T21:01:12.656Z,2.70
2019-01-10T21:03:45.476Z,2.70
2019-01-10T21:06:16.613Z,2.70
2019-01-10T21:08:49.557Z,2.70
2019-01-10T21:11:19.763Z,2.80
2019-01-10T21:13:50.068Z,2.80
2019-01-10T21:16:20.362Z,2.70
2019-01-10T21:18:50.597Z,2.70
2019-01-10T21:21:20.879Z,2.70
2019-01-10T21:23:51.111Z,2.80
2019-01-10T21:26:21.357Z,2.80
2019-01-10T21:28:53.075Z,2.80
2019-01-10T21:31:23.269Z,2.70
2019-01-10T21:33:53.671Z,2.70
2019-01-10T21:36:24.405Z,2.70
2019-01-10T21:38:58.015Z,2.60
2019-01-10T21:41:31.791Z,2.60
2019-01-10T21:44:14.340Z,2.60
2019-01-10T21:46:50.660Z,2.70
2019-01-10T21:49:27.806Z,2.60
2019-01-10T21:51:59.709Z,2.70
2019-01-10T21:54:30.453Z,2.60
2019-01-10T21:57:00.707Z,2.60
2019-01-10T21:59:31.000Z,2.60
2019-01-10T22:02:01.210Z,2.60
2019-01-10T22:04:31.415Z,2.60
2019-01-10T22:07:01.578Z,2.60
2019-01-10T22:09:31.946Z,2.60
2019-01-10T22:12:02.134Z,2.50
2019-01-10T22:14:33.167Z,2.50
2019-01-10T22:17:03.656Z,2.50
2019-01-10T22:19:34.269Z,2.50
2019-01-10T22:22:04.972Z,2.50
2019-01-10T22:24:35.239Z,2.50
2019-01-10T22:27:05.459Z,2.50
2019-01-10T22:29:35.809Z,2.30
2019-01-10T22:32:06.316Z,2.30
2019-01-10T22:34:36.795Z,2.30
2019-01-10T22:37:07.325Z,2.40
2019-01-10T22:39:37.698Z,2.30
2019-01-10T22:42:09.580Z,2.30
2019-01-10T22:44:40.847Z,2.30
2019-01-10T22:47:11.196Z,2.30
2019-01-10T22:49:41.780Z,2.20
2019-01-10T22:52:13.160Z,2.20
2019-01-10T22:54:43.323Z,2.20
2019-01-10T22:57:13.530Z,2.10
2019-01-10T22:59:46.722Z,2.10
2019-01-10T23:02:17.990Z,2.10
2019-01-10T23:04:48.598Z,2.10
2019-01-10T23:07:21.429Z,2.10
2019-01-10T23:09:51.623Z,2.20
2019-01-10T23:12:21.847Z,2.10
2019-01-10T23:14:52.031Z,2.20
2019-01-10T23:17:23.870Z,2.10
2019-01-10T23:19:54.192Z,2.20
2019-01-10T23:22:24.388Z,2.20
2019-01-10T23:25:00.939Z,2.20
2019-01-10T23:27:31.125Z,2.20
2019-01-10T23:30:01.342Z,2.20
2019-01-10T23:32:32.803Z,2.20
2019-01-10T23:35:03.047Z,2.20
2019-01-10T23:37:33.133Z,2.20
2019-01-10T23:40:03.322Z,2.30
2019-01-10T23:42:33.514Z,2.20
2019-01-10T23:45:05.279Z,2.20
2019-01-10T23:47:35.408Z,2.20
2019-01-10T23:50:06.325Z,2.20
2019-01-10T23:52:37.558Z,2.10
2019-01-10T23:55:08.075Z,2.20
2019-01-10T23:57:38.251Z,2.10
